sensor_id;sensor_type;location;lat;lon;timestamp;pressure;altitude;pressure_sealevel;temperature;humidity
18607;BME280;9433;42.678;23.360;2022-07-23T00:00:06;95458.50;;;26.11;43.98
18607;BME280;9433;42.678;23.360;2022-07-23T00:02:34;95456.34;;;25.49;45.62
18607;BME280;9433;42.678;23.360;2022-07-23T00:05:02;95463.50;;;25.38;46.02
18607;BME280;9433;42.678;23.360;2022-07-23T00:07:29;95469.63;;;25.51;45.48
18607;BME280;9433;42.678;23.360;2022-07-23T00:09:56;95462.34;;;25.39;46.16
18607;BME280;9433;42.678;23.360;2022-07-23T00:12:23;95471.81;;;25.29;46.08
18607;BME280;9433;42.678;23.360;2022-07-23T00:14:50;95470.09;;;25.21;46.17
18607;BME280;9433;42.678;23.360;2022-07-23T00:17:16;95476.31;;;25.22;46.79
18607;BME280;9433;42.678;23.360;2022-07-23T00:19:43;95471.72;;;25.26;46.96
18607;BME280;9433;42.678;23.360;2022-07-23T00:22:11;95476.34;;;25.09;47.39
18607;BME280;9433;42.678;23.360;2022-07-23T00:24:38;95479.81;;;25.22;47.38
18607;BME280;9433;42.678;23.360;2022-07-23T00:27:05;95479.63;;;25.47;46.94
18607;BME280;9433;42.678;23.360;2022-07-23T00:29:32;95479.72;;;25.35;46.69
18607;BME280;9433;42.678;23.360;2022-07-23T00:31:58;95478.31;;;25.41;44.92
18607;BME280;9433;42.678;23.360;2022-07-23T00:34:25;95484.63;;;25.45;42.71
18607;BME280;9433;42.678;23.360;2022-07-23T00:36:52;95480.38;;;25.00;43.59
18607;BME280;9433;42.678;23.360;2022-07-23T00:39:21;95456.66;;;25.13;42.78
18607;BME280;9433;42.678;23.360;2022-07-23T00:41:48;95479.81;;;25.22;42.83
18607;BME280;9433;42.678;23.360;2022-07-23T00:44:17;95482.97;;;25.40;42.07
18607;BME280;9433;42.678;23.360;2022-07-23T00:46:49;95488.25;;;25.17;42.34
18607;BME280;9433;42.678;23.360;2022-07-23T00:49:19;95481.84;;;25.25;42.14
18607;BME280;9433;42.678;23.360;2022-07-23T00:51:46;95484.72;;;25.48;41.50
18607;BME280;9433;42.678;23.360;2022-07-23T00:54:14;95475.06;;;25.35;41.65
18607;BME280;9433;42.678;23.360;2022-07-23T00:56:42;95473.44;;;25.66;41.09
18607;BME280;9433;42.678;23.360;2022-07-23T00:59:09;95481.66;;;25.34;41.64
18607;BME280;9433;42.678;23.360;2022-07-23T01:01:37;95469.09;;;25.45;41.01
18607;BME280;9433;42.678;23.360;2022-07-23T01:04:04;95477.38;;;25.68;41.26
18607;BME280;9433;42.678;23.360;2022-07-23T01:06:34;95478.72;;;25.59;41.09
18607;BME280;9433;42.678;23.360;2022-07-23T01:09:02;95467.84;;;25.43;41.66
18607;BME280;9433;42.678;23.360;2022-07-23T01:11:30;95481.59;;;25.66;41.51
18607;BME280;9433;42.678;23.360;2022-07-23T01:13:59;95480.97;;;25.88;41.06
18607;BME280;9433;42.678;23.360;2022-07-23T01:16:26;95480.63;;;25.74;41.22
18607;BME280;9433;42.678;23.360;2022-07-23T01:18:52;95471.19;;;25.52;41.84
18607;BME280;9433;42.678;23.360;2022-07-23T01:21:19;95467.09;;;25.77;41.11
18607;BME280;9433;42.678;23.360;2022-07-23T01:23:48;95464.16;;;26.02;40.82
18607;BME280;9433;42.678;23.360;2022-07-23T01:26:15;95468.06;;;25.85;40.63
18607;BME280;9433;42.678;23.360;2022-07-23T01:28:43;95463.44;;;26.05;40.36
18607;BME280;9433;42.678;23.360;2022-07-23T01:31:09;95463.47;;;25.54;41.48
18607;BME280;9433;42.678;23.360;2022-07-23T01:33:36;95466.13;;;25.35;42.76
18607;BME280;9433;42.678;23.360;2022-07-23T01:36:03;95466.81;;;25.47;41.47
18607;BME280;9433;42.678;23.360;2022-07-23T01:38:30;95461.72;;;25.46;42.75
18607;BME280;9433;42.678;23.360;2022-07-23T01:40:58;95460.16;;;25.13;43.96
18607;BME280;9433;42.678;23.360;2022-07-23T01:43:25;95459.59;;;24.92;44.62
18607;BME280;9433;42.678;23.360;2022-07-23T01:45:52;95466.03;;;25.15;43.92
18607;BME280;9433;42.678;23.360;2022-07-23T01:48:19;95463.56;;;25.42;43.59
18607;BME280;9433;42.678;23.360;2022-07-23T01:50:46;95467.25;;;25.02;44.27
18607;BME280;9433;42.678;23.360;2022-07-23T01:53:13;95468.00;;;24.71;45.49
18607;BME280;9433;42.678;23.360;2022-07-23T01:55:40;95458.63;;;25.00;43.04
18607;BME280;9433;42.678;23.360;2022-07-23T01:58:08;95464.09;;;25.47;40.79
18607;BME280;9433;42.678;23.360;2022-07-23T02:00:35;95462.78;;;25.25;40.92
18607;BME280;9433;42.678;23.360;2022-07-23T02:03:02;95460.44;;;25.75;41.96
18607;BME280;9433;42.678;23.360;2022-07-23T02:05:29;95469.53;;;26.18;41.05
18607;BME280;9433;42.678;23.360;2022-07-23T02:07:57;95470.09;;;25.21;42.72
18607;BME280;9433;42.678;23.360;2022-07-23T02:10:24;95465.66;;;25.48;42.80
18607;BME280;9433;42.678;23.360;2022-07-23T02:12:50;95472.09;;;25.75;42.09
18607;BME280;9433;42.678;23.360;2022-07-23T02:15:19;95470.38;;;25.67;42.15
18607;BME280;9433;42.678;23.360;2022-07-23T02:17:45;95473.44;;;25.66;42.34
18607;BME280;9433;42.678;23.360;2022-07-23T02:20:12;95471.63;;;25.54;42.85
18607;BME280;9433;42.678;23.360;2022-07-23T02:22:39;95471.16;;;24.57;45.24
18607;BME280;9433;42.678;23.360;2022-07-23T02:25:07;95465.88;;;24.36;46.03
18607;BME280;9433;42.678;23.360;2022-07-23T02:27:34;95470.06;;;24.33;46.24
18607;BME280;9433;42.678;23.360;2022-07-23T02:30:01;95464.50;;;24.86;44.65
18607;BME280;9433;42.678;23.360;2022-07-23T02:32:29;95472.75;;;24.18;46.62
18607;BME280;9433;42.678;23.360;2022-07-23T02:34:56;95468.53;;;24.60;45.40
18607;BME280;9433;42.678;23.360;2022-07-23T02:37:23;95469.09;;;24.26;46.12
18607;BME280;9433;42.678;23.360;2022-07-23T02:39:49;95478.34;;;23.97;47.08
18607;BME280;9433;42.678;23.360;2022-07-23T02:42:16;95474.97;;;23.87;47.59
18607;BME280;9433;42.678;23.360;2022-07-23T02:44:43;95475.97;;;23.95;46.98
18607;BME280;9433;42.678;23.360;2022-07-23T02:47:10;95473.38;;;23.86;47.65
18607;BME280;9433;42.678;23.360;2022-07-23T02:49:38;95482.69;;;23.73;48.17
18607;BME280;9433;42.678;23.360;2022-07-23T02:52:05;95481.19;;;24.41;46.31
18607;BME280;9433;42.678;23.360;2022-07-23T02:54:32;95482.88;;;23.92;47.39
18607;BME280;9433;42.678;23.360;2022-07-23T02:56:58;95481.03;;;24.37;46.14
18607;BME280;9433;42.678;23.360;2022-07-23T02:59:25;95497.13;;;23.77;48.06
18607;BME280;9433;42.678;23.360;2022-07-23T03:01:52;95493.53;;;23.73;49.06
18607;BME280;9433;42.678;23.360;2022-07-23T03:04:19;95496.13;;;23.82;48.64
18607;BME280;9433;42.678;23.360;2022-07-23T03:06:47;95496.53;;;24.08;47.79
18607;BME280;9433;42.678;23.360;2022-07-23T03:09:14;95506.88;;;23.78;48.05
18607;BME280;9433;42.678;23.360;2022-07-23T03:11:41;95499.06;;;23.64;49.03
18607;BME280;9433;42.678;23.360;2022-07-23T03:14:08;95498.53;;;23.71;48.89
18607;BME280;9433;42.678;23.360;2022-07-23T03:16:34;95500.34;;;24.20;46.94
18607;BME280;9433;42.678;23.360;2022-07-23T03:19:01;95508.44;;;23.42;49.36
18607;BME280;9433;42.678;23.360;2022-07-23T03:21:28;95499.22;;;24.21;47.34
18607;BME280;9433;42.678;23.360;2022-07-23T03:23:56;95507.66;;;24.31;46.78
18607;BME280;9433;42.678;23.360;2022-07-23T03:26:23;95506.19;;;23.32;50.00
18607;BME280;9433;42.678;23.360;2022-07-23T03:28:50;95513.44;;;23.28;50.78
18607;BME280;9433;42.678;23.360;2022-07-23T03:31:17;95521.03;;;23.72;49.26
18607;BME280;9433;42.678;23.360;2022-07-23T03:33:44;95510.72;;;23.65;49.72
18607;BME280;9433;42.678;23.360;2022-07-23T03:36:11;95511.72;;;23.60;49.75
18607;BME280;9433;42.678;23.360;2022-07-23T03:38:37;95512.28;;;23.54;50.20
18607;BME280;9433;42.678;23.360;2022-07-23T03:41:06;95515.50;;;23.68;50.10
18607;BME280;9433;42.678;23.360;2022-07-23T03:43:33;95512.06;;;24.36;47.92
18607;BME280;9433;42.678;23.360;2022-07-23T03:45:59;95508.06;;;24.18;48.50
18607;BME280;9433;42.678;23.360;2022-07-23T03:48:26;95521.56;;;23.65;49.98
18607;BME280;9433;42.678;23.360;2022-07-23T03:50:53;95517.28;;;23.76;50.64
18607;BME280;9433;42.678;23.360;2022-07-23T03:53:20;95521.13;;;23.75;50.14
18607;BME280;9433;42.678;23.360;2022-07-23T03:55:46;95521.81;;;23.72;50.20
18607;BME280;9433;42.678;23.360;2022-07-23T03:58:15;95523.38;;;23.73;50.18
18607;BME280;9433;42.678;23.360;2022-07-23T04:00:41;95526.66;;;23.79;50.12
18607;BME280;9433;42.678;23.360;2022-07-23T04:03:08;95518.25;;;24.08;49.20
18607;BME280;9433;42.678;23.360;2022-07-23T04:05:35;95519.00;;;23.68;50.74
18607;BME280;9433;42.678;23.360;2022-07-23T04:08:01;95513.19;;;23.95;50.03
18607;BME280;9433;42.678;23.360;2022-07-23T04:10:28;95522.28;;;23.74;50.38
18607;BME280;9433;42.678;23.360;2022-07-23T04:12:55;95519.81;;;24.09;49.83
18607;BME280;9433;42.678;23.360;2022-07-23T04:15:23;95527.13;;;23.81;50.50
18607;BME280;9433;42.678;23.360;2022-07-23T04:17:50;95519.59;;;24.14;49.36
18607;BME280;9433;42.678;23.360;2022-07-23T04:20:17;95517.06;;;24.62;46.94
18607;BME280;9433;42.678;23.360;2022-07-23T04:22:44;95527.66;;;23.99;49.26
18607;BME280;9433;42.678;23.360;2022-07-23T04:25:10;95523.22;;;24.06;49.48
18607;BME280;9433;42.678;23.360;2022-07-23T04:27:39;95523.09;;;24.55;48.16
18607;BME280;9433;42.678;23.360;2022-07-23T04:30:07;95534.84;;;24.44;47.93
18607;BME280;9433;42.678;23.360;2022-07-23T04:32:35;95527.75;;;24.55;47.39
18607;BME280;9433;42.678;23.360;2022-07-23T04:35:02;95511.13;;;24.04;48.09
18607;BME280;9433;42.678;23.360;2022-07-23T04:37:28;95530.28;;;24.48;47.17
18607;BME280;9433;42.678;23.360;2022-07-23T04:39:55;95524.75;;;24.44;45.80
18607;BME280;9433;42.678;23.360;2022-07-23T04:42:22;95527.38;;;24.41;44.55
18607;BME280;9433;42.678;23.360;2022-07-23T04:44:49;95529.00;;;24.57;43.97
18607;BME280;9433;42.678;23.360;2022-07-23T04:47:15;95534.63;;;24.65;44.65
18607;BME280;9433;42.678;23.360;2022-07-23T04:49:43;95528.91;;;24.54;45.63
18607;BME280;9433;42.678;23.360;2022-07-23T04:52:10;95540.97;;;24.56;45.78
18607;BME280;9433;42.678;23.360;2022-07-23T04:54:37;95541.38;;;24.43;46.06
18607;BME280;9433;42.678;23.360;2022-07-23T04:57:04;95547.75;;;24.91;45.35
18607;BME280;9433;42.678;23.360;2022-07-23T04:59:30;95551.81;;;24.69;45.35
18607;BME280;9433;42.678;23.360;2022-07-23T05:01:57;95543.06;;;24.75;44.78
18607;BME280;9433;42.678;23.360;2022-07-23T05:04:24;95533.38;;;25.06;44.45
18607;BME280;9433;42.678;23.360;2022-07-23T05:06:52;95543.44;;;24.90;44.85
18607;BME280;9433;42.678;23.360;2022-07-23T05:09:19;95537.81;;;25.26;44.64
18607;BME280;9433;42.678;23.360;2022-07-23T05:11:45;95541.25;;;25.23;44.93
18607;BME280;9433;42.678;23.360;2022-07-23T05:14:12;95532.81;;;25.28;44.60
18607;BME280;9433;42.678;23.360;2022-07-23T05:16:39;95546.59;;;25.36;44.48
18607;BME280;9433;42.678;23.360;2022-07-23T05:19:06;95543.16;;;25.23;44.85
18607;BME280;9433;42.678;23.360;2022-07-23T05:21:33;95544.13;;;24.71;44.93
18607;BME280;9433;42.678;23.360;2022-07-23T05:24:01;95544.78;;;25.24;44.36
18607;BME280;9433;42.678;23.360;2022-07-23T05:26:27;95547.13;;;25.73;44.48
18607;BME280;9433;42.678;23.360;2022-07-23T05:28:54;95549.56;;;25.62;44.51
18607;BME280;9433;42.678;23.360;2022-07-23T05:31:21;95543.88;;;25.67;42.86
18607;BME280;9433;42.678;23.360;2022-07-23T05:33:48;95544.06;;;25.43;43.75
18607;BME280;9433;42.678;23.360;2022-07-23T05:36:14;95548.00;;;25.93;42.70
18607;BME280;9433;42.678;23.360;2022-07-23T05:38:41;95552.41;;;25.82;44.02
18607;BME280;9433;42.678;23.360;2022-07-23T05:41:09;95550.69;;;26.09;43.43
18607;BME280;9433;42.678;23.360;2022-07-23T05:43:36;95551.78;;;25.88;43.87
18607;BME280;9433;42.678;23.360;2022-07-23T05:46:03;95553.06;;;26.10;43.13
18607;BME280;9433;42.678;23.360;2022-07-23T05:48:30;95553.13;;;26.14;42.98
18607;BME280;9433;42.678;23.360;2022-07-23T05:50:57;95552.19;;;26.06;42.36
18607;BME280;9433;42.678;23.360;2022-07-23T05:53:24;95555.56;;;26.19;42.33
18607;BME280;9433;42.678;23.360;2022-07-23T05:55:50;95547.97;;;26.28;41.83
18607;BME280;9433;42.678;23.360;2022-07-23T05:58:19;95549.31;;;25.67;42.83
18607;BME280;9433;42.678;23.360;2022-07-23T06:00:45;95549.19;;;26.11;42.04
18607;BME280;9433;42.678;23.360;2022-07-23T06:03:12;95550.19;;;26.03;41.71
18607;BME280;9433;42.678;23.360;2022-07-23T06:05:39;95543.22;;;26.60;40.51
18607;BME280;9433;42.678;23.360;2022-07-23T06:08:06;95549.47;;;26.06;41.04
18607;BME280;9433;42.678;23.360;2022-07-23T06:10:32;95542.59;;;26.32;41.38
18607;BME280;9433;42.678;23.360;2022-07-23T06:12:59;95539.22;;;26.54;41.06
18607;BME280;9433;42.678;23.360;2022-07-23T06:15:27;95534.66;;;26.81;39.83
18607;BME280;9433;42.678;23.360;2022-07-23T06:17:54;95545.69;;;26.30;40.50
18607;BME280;9433;42.678;23.360;2022-07-23T06:20:21;95539.22;;;26.54;40.39
18607;BME280;9433;42.678;23.360;2022-07-23T06:22:48;95549.06;;;27.01;40.41
18607;BME280;9433;42.678;23.360;2022-07-23T06:25:15;95539.91;;;26.90;40.71
18607;BME280;9433;42.678;23.360;2022-07-23T06:27:42;95533.19;;;27.26;40.52
18607;BME280;9433;42.678;23.360;2022-07-23T06:30:10;95533.53;;;27.25;40.56
18607;BME280;9433;42.678;23.360;2022-07-23T06:32:38;95533.41;;;27.63;39.46
18607;BME280;9433;42.678;23.360;2022-07-23T06:35:06;95528.03;;;27.44;39.09
18607;BME280;9433;42.678;23.360;2022-07-23T06:37:33;95527.66;;;27.46;39.09
18607;BME280;9433;42.678;23.360;2022-07-23T06:39:59;95528.06;;;27.71;38.64
18607;BME280;9433;42.678;23.360;2022-07-23T06:42:26;95528.09;;;27.74;39.38
18607;BME280;9433;42.678;23.360;2022-07-23T06:44:53;95533.81;;;27.39;39.88
18607;BME280;9433;42.678;23.360;2022-07-23T06:47:19;95528.63;;;27.80;39.05
18607;BME280;9433;42.678;23.360;2022-07-23T06:49:48;95528.19;;;27.78;39.05
18607;BME280;9433;42.678;23.360;2022-07-23T06:52:14;95523.09;;;28.33;37.85
18607;BME280;9433;42.678;23.360;2022-07-23T06:54:41;95527.63;;;28.18;38.19
18607;BME280;9433;42.678;23.360;2022-07-23T06:57:08;95524.22;;;27.98;38.33
18607;BME280;9433;42.678;23.360;2022-07-23T06:59:35;95527.06;;;28.36;37.95
18607;BME280;9433;42.678;23.360;2022-07-23T07:02:05;95527.97;;;28.17;38.20
18607;BME280;9433;42.678;23.360;2022-07-23T07:04:32;95524.06;;;28.78;37.17
18607;BME280;9433;42.678;23.360;2022-07-23T07:07:00;95525.94;;;29.04;37.40
18607;BME280;9433;42.678;23.360;2022-07-23T07:09:27;95520.56;;;28.77;36.79
18607;BME280;9433;42.678;23.360;2022-07-23T07:11:54;95526.66;;;28.37;36.46
18607;BME280;9433;42.678;23.360;2022-07-23T07:14:21;95518.31;;;28.90;35.97
18607;BME280;9433;42.678;23.360;2022-07-23T07:16:47;95503.69;;;28.72;34.56
18607;BME280;9433;42.678;23.360;2022-07-23T07:19:14;95516.34;;;28.87;33.75
18607;BME280;9433;42.678;23.360;2022-07-23T07:21:41;95512.75;;;28.79;33.99
18607;BME280;9433;42.678;23.360;2022-07-23T07:24:09;95510.63;;;29.40;33.62
18607;BME280;9433;42.678;23.360;2022-07-23T07:26:36;95508.94;;;29.73;34.79
18607;BME280;9433;42.678;23.360;2022-07-23T07:29:04;95507.34;;;29.65;34.11
18607;BME280;9433;42.678;23.360;2022-07-23T07:31:30;95501.13;;;29.75;34.52
18607;BME280;9433;42.678;23.360;2022-07-23T07:33:57;95500.00;;;29.80;34.43
18607;BME280;9433;42.678;23.360;2022-07-23T07:36:24;95500.72;;;30.35;35.14
18607;BME280;9433;42.678;23.360;2022-07-23T07:38:51;95503.03;;;30.26;34.06
18607;BME280;9433;42.678;23.360;2022-07-23T07:41:19;95500.47;;;30.69;33.55
18607;BME280;9433;42.678;23.360;2022-07-23T07:43:49;95500.69;;;30.28;33.11
18607;BME280;9433;42.678;23.360;2022-07-23T07:46:16;95499.78;;;30.86;32.22
18607;BME280;9433;42.678;23.360;2022-07-23T07:48:42;95492.31;;;30.91;32.38
18607;BME280;9433;42.678;23.360;2022-07-23T07:51:09;95499.03;;;31.11;32.13
18607;BME280;9433;42.678;23.360;2022-07-23T07:53:36;95501.38;;;31.12;32.50
18607;BME280;9433;42.678;23.360;2022-07-23T07:56:03;95496.72;;;31.63;33.08
18607;BME280;9433;42.678;23.360;2022-07-23T07:58:32;95501.00;;;31.14;32.48
18607;BME280;9433;42.678;23.360;2022-07-23T08:00:58;95488.88;;;31.37;31.27
18607;BME280;9433;42.678;23.360;2022-07-23T08:03:25;95488.84;;;31.83;32.11
18607;BME280;9433;42.678;23.360;2022-07-23T08:05:52;95483.72;;;31.81;31.40
18607;BME280;9433;42.678;23.360;2022-07-23T08:08:19;95479.31;;;32.31;32.28
18607;BME280;9433;42.678;23.360;2022-07-23T08:10:46;95488.81;;;32.08;30.38
18607;BME280;9433;42.678;23.360;2022-07-23T08:13:13;95485.19;;;32.47;31.14
18607;BME280;9433;42.678;23.360;2022-07-23T08:15:43;95477.78;;;32.22;30.05
18607;BME280;9433;42.678;23.360;2022-07-23T08:18:10;95483.38;;;31.76;30.78
18607;BME280;9433;42.678;23.360;2022-07-23T08:20:37;95468.28;;;32.48;30.06
18607;BME280;9433;42.678;23.360;2022-07-23T08:23:05;95479.16;;;32.73;30.66
18607;BME280;9433;42.678;23.360;2022-07-23T08:25:33;95470.78;;;32.03;30.29
18607;BME280;9433;42.678;23.360;2022-07-23T08:28:02;95478.47;;;32.55;29.69
18607;BME280;9433;42.678;23.360;2022-07-23T08:30:29;95474.59;;;32.42;30.16
18607;BME280;9433;42.678;23.360;2022-07-23T08:32:59;95465.63;;;33.04;29.86
18607;BME280;9433;42.678;23.360;2022-07-23T08:35:28;95457.38;;;33.04;30.00
18607;BME280;9433;42.678;23.360;2022-07-23T08:37:55;95472.09;;;33.35;29.08
18607;BME280;9433;42.678;23.360;2022-07-23T08:40:22;95473.34;;;32.57;29.93
18607;BME280;9433;42.678;23.360;2022-07-23T08:42:50;95475.09;;;33.00;28.79
18607;BME280;9433;42.678;23.360;2022-07-23T08:45:18;95477.09;;;32.99;29.47
18607;BME280;9433;42.678;23.360;2022-07-23T08:47:48;95466.81;;;33.59;29.07
18607;BME280;9433;42.678;23.360;2022-07-23T08:50:17;95471.97;;;32.94;29.72
18607;BME280;9433;42.678;23.360;2022-07-23T08:52:44;95465.56;;;33.11;29.12
18607;BME280;9433;42.678;23.360;2022-07-23T08:55:11;95462.75;;;33.71;29.15
18607;BME280;9433;42.678;23.360;2022-07-23T08:57:38;95464.44;;;33.09;27.95
18607;BME280;9433;42.678;23.360;2022-07-23T09:00:06;95466.06;;;33.55;28.65
18607;BME280;9433;42.678;23.360;2022-07-23T09:02:38;95466.22;;;33.30;28.41
18607;BME280;9433;42.678;23.360;2022-07-23T09:05:06;95456.75;;;34.21;26.73
18607;BME280;9433;42.678;23.360;2022-07-23T09:07:34;95456.25;;;33.91;28.48
18607;BME280;9433;42.678;23.360;2022-07-23T09:10:11;95458.56;;;33.97;28.09
18607;BME280;9433;42.678;23.360;2022-07-23T09:12:37;95457.97;;;34.50;26.81
18607;BME280;9433;42.678;23.360;2022-07-23T09:15:06;95454.78;;;34.55;27.58
18607;BME280;9433;42.678;23.360;2022-07-23T09:17:38;95457.44;;;34.63;26.86
18607;BME280;9433;42.678;23.360;2022-07-23T09:20:10;95458.34;;;35.14;28.44
18607;BME280;9433;42.678;23.360;2022-07-23T09:22:40;95454.81;;;35.10;26.22
18607;BME280;9433;42.678;23.360;2022-07-23T09:25:12;95452.56;;;35.04;26.39
18607;BME280;9433;42.678;23.360;2022-07-23T09:27:51;95456.00;;;34.81;26.18
18607;BME280;9433;42.678;23.360;2022-07-23T09:30:20;95457.38;;;34.97;25.68
18607;BME280;9433;42.678;23.360;2022-07-23T09:33:07;95453.19;;;34.85;26.11
18607;BME280;9433;42.678;23.360;2022-07-23T09:35:48;95446.28;;;35.27;25.97
18607;BME280;9433;42.678;23.360;2022-07-23T09:38:17;95450.06;;;35.37;22.85
18607;BME280;9433;42.678;23.360;2022-07-23T09:40:45;95446.84;;;35.15;22.83
18607;BME280;9433;42.678;23.360;2022-07-23T09:43:12;95440.94;;;34.86;23.72
18607;BME280;9433;42.678;23.360;2022-07-23T09:45:40;95437.50;;;34.48;25.15
18607;BME280;9433;42.678;23.360;2022-07-23T09:48:11;95434.38;;;35.07;23.71
18607;BME280;9433;42.678;23.360;2022-07-23T09:50:39;95434.72;;;35.33;23.36
18607;BME280;9433;42.678;23.360;2022-07-23T09:53:06;95427.22;;;36.23;23.09
18607;BME280;9433;42.678;23.360;2022-07-23T09:55:35;95410.38;;;36.14;22.48
18607;BME280;9433;42.678;23.360;2022-07-23T09:58:04;95422.34;;;36.47;21.90
18607;BME280;9433;42.678;23.360;2022-07-23T10:00:32;95423.91;;;36.49;22.91
18607;BME280;9433;42.678;23.360;2022-07-23T10:02:59;95403.59;;;36.91;21.51
18607;BME280;9433;42.678;23.360;2022-07-23T10:05:26;95411.28;;;36.47;20.99
18607;BME280;9433;42.678;23.360;2022-07-23T10:07:54;95412.69;;;36.92;20.61
18607;BME280;9433;42.678;23.360;2022-07-23T10:10:22;95413.94;;;37.07;21.70
18607;BME280;9433;42.678;23.360;2022-07-23T10:12:54;95405.88;;;37.62;21.78
18607;BME280;9433;42.678;23.360;2022-07-23T10:15:35;95406.16;;;37.97;21.04
18607;BME280;9433;42.678;23.360;2022-07-23T10:18:02;95403.22;;;37.88;21.64
18607;BME280;9433;42.678;23.360;2022-07-23T10:20:28;95397.78;;;38.13;20.63
18607;BME280;9433;42.678;23.360;2022-07-23T10:22:59;95398.72;;;37.77;21.13
18607;BME280;9433;42.678;23.360;2022-07-23T10:25:32;95393.78;;;37.85;20.60
18607;BME280;9433;42.678;23.360;2022-07-23T10:28:37;95396.94;;;37.71;20.72
18607;BME280;9433;42.678;23.360;2022-07-23T10:31:17;95387.19;;;37.95;18.90
18607;BME280;9433;42.678;23.360;2022-07-23T10:33:55;95391.19;;;37.78;17.87
18607;BME280;9433;42.678;23.360;2022-07-23T10:36:28;95389.38;;;38.29;18.17
18607;BME280;9433;42.678;23.360;2022-07-23T10:39:05;95380.97;;;38.04;17.62
18607;BME280;9433;42.678;23.360;2022-07-23T10:41:36;95381.53;;;38.41;17.81
18607;BME280;9433;42.678;23.360;2022-07-23T10:44:12;95388.47;;;38.62;18.82
18607;BME280;9433;42.678;23.360;2022-07-23T10:46:58;95386.22;;;38.57;18.64
18607;BME280;9433;42.678;23.360;2022-07-23T10:49:40;95384.50;;;38.34;18.29
18607;BME280;9433;42.678;23.360;2022-07-23T10:52:21;95370.78;;;38.68;18.82
18607;BME280;9433;42.678;23.360;2022-07-23T10:54:49;95368.66;;;38.60;18.43
18607;BME280;9433;42.678;23.360;2022-07-23T10:57:17;95366.13;;;39.04;17.86
18607;BME280;9433;42.678;23.360;2022-07-23T11:02:53;95351.34;;;38.94;17.72
18607;BME280;9433;42.678;23.360;2022-07-23T11:05:22;95348.75;;;39.25;17.12
18607;BME280;9433;42.678;23.360;2022-07-23T11:08:12;95352.31;;;39.13;17.30
18607;BME280;9433;42.678;23.360;2022-07-23T11:10:43;95348.66;;;39.03;16.86
18607;BME280;9433;42.678;23.360;2022-07-23T11:13:29;95345.75;;;39.19;15.44
18607;BME280;9433;42.678;23.360;2022-07-23T11:16:24;95342.81;;;38.88;14.88
18607;BME280;9433;42.678;23.360;2022-07-23T11:19:08;95348.13;;;38.83;15.28
18607;BME280;9433;42.678;23.360;2022-07-23T11:21:48;95335.69;;;39.47;15.51
18607;BME280;9433;42.678;23.360;2022-07-23T11:24:24;95343.78;;;39.55;15.83
18607;BME280;9433;42.678;23.360;2022-07-23T11:27:00;95339.38;;;39.66;16.01
18607;BME280;9433;42.678;23.360;2022-07-23T11:29:46;95330.94;;;39.35;14.69
18607;BME280;9433;42.678;23.360;2022-07-23T11:32:31;95327.25;;;39.73;14.27
18607;BME280;9433;42.678;23.360;2022-07-23T11:35:02;95332.88;;;39.82;14.33
18607;BME280;9433;42.678;23.360;2022-07-23T11:37:35;95325.22;;;39.74;12.69
18607;BME280;9433;42.678;23.360;2022-07-23T11:40:06;95323.94;;;40.09;14.00
18607;BME280;9433;42.678;23.360;2022-07-23T11:42:34;95314.72;;;39.90;13.55
18607;BME280;9433;42.678;23.360;2022-07-23T11:45:02;95313.78;;;39.72;13.46
18607;BME280;9433;42.678;23.360;2022-07-23T11:47:29;95317.09;;;39.79;13.18
18607;BME280;9433;42.678;23.360;2022-07-23T11:49:58;95314.47;;;40.07;12.57
18607;BME280;9433;42.678;23.360;2022-07-23T11:52:27;95313.88;;;39.46;11.90
18607;BME280;9433;42.678;23.360;2022-07-23T11:54:55;95309.09;;;40.12;13.33
18607;BME280;9433;42.678;23.360;2022-07-23T11:57:25;95315.84;;;39.58;12.16
18607;BME280;9433;42.678;23.360;2022-07-23T11:59:55;95307.06;;;40.04;12.43
18607;BME280;9433;42.678;23.360;2022-07-23T12:02:22;95312.03;;;40.31;11.71
18607;BME280;9433;42.678;23.360;2022-07-23T12:04:50;95306.44;;;40.31;12.39
18607;BME280;9433;42.678;23.360;2022-07-23T12:07:40;95311.25;;;40.39;12.53
18607;BME280;9433;42.678;23.360;2022-07-23T12:10:12;95302.69;;;40.25;12.84
18607;BME280;9433;42.678;23.360;2022-07-23T12:12:40;95294.22;;;40.28;11.72
18607;BME280;9433;42.678;23.360;2022-07-23T12:15:08;95287.81;;;40.19;11.81
18607;BME280;9433;42.678;23.360;2022-07-23T12:17:37;95297.41;;;40.18;11.48
18607;BME280;9433;42.678;23.360;2022-07-23T12:20:07;95288.53;;;40.41;10.86
18607;BME280;9433;42.678;23.360;2022-07-23T12:22:36;95282.94;;;40.32;10.96
18607;BME280;9433;42.678;23.360;2022-07-23T12:25:10;95288.19;;;40.61;10.98
18607;BME280;9433;42.678;23.360;2022-07-23T12:27:40;95291.75;;;40.08;11.86
18607;BME280;9433;42.678;23.360;2022-07-23T12:30:19;95283.94;;;40.16;13.13
18607;BME280;9433;42.678;23.360;2022-07-23T12:32:48;95284.00;;;40.66;12.85
18607;BME280;9433;42.678;23.360;2022-07-23T12:35:16;95280.00;;;40.67;12.21
18607;BME280;9433;42.678;23.360;2022-07-23T12:37:44;95271.44;;;40.21;12.43
18607;BME280;9433;42.678;23.360;2022-07-23T12:40:21;95266.97;;;40.01;12.96
18607;BME280;9433;42.678;23.360;2022-07-23T12:42:49;95275.56;;;40.56;12.52
18607;BME280;9433;42.678;23.360;2022-07-23T12:45:17;95270.91;;;40.94;11.89
18607;BME280;9433;42.678;23.360;2022-07-23T12:47:51;95264.63;;;41.30;13.13
18607;BME280;9433;42.678;23.360;2022-07-23T12:50:37;95263.06;;;41.01;12.71
18607;BME280;9433;42.678;23.360;2022-07-23T12:53:06;95262.84;;;40.46;13.91
18607;BME280;9433;42.678;23.360;2022-07-23T12:55:35;95243.06;;;41.12;13.33
18607;BME280;9433;42.678;23.360;2022-07-23T12:58:04;95257.78;;;41.31;12.97
18607;BME280;9433;42.678;23.360;2022-07-23T13:00:32;95255.00;;;41.68;12.79
18607;BME280;9433;42.678;23.360;2022-07-23T13:02:58;95259.81;;;41.76;13.79
18607;BME280;9433;42.678;23.360;2022-07-23T13:05:25;95250.63;;;41.85;12.72
18607;BME280;9433;42.678;23.360;2022-07-23T13:07:52;95258.34;;;42.09;12.67
18607;BME280;9433;42.678;23.360;2022-07-23T13:10:19;95247.34;;;42.05;13.00